sensor_id;sensor_type;location;lat;lon;timestamp;temperature;humidity
12152;DHT22;6139;51.274;7.128;2023-09-18T00:00:18;21.10;1.00
12152;DHT22;6139;51.274;7.128;2023-09-18T00:01:23;21.10;1.00
12152;DHT22;6139;51.274;7.128;2023-09-18T00:02:24;21.10;1.00
12152;DHT22;6139;51.274;7.128;2023-09-18T00:03:26;21.10;1.00
12152;DHT22;6139;51.274;7.128;2023-09-18T00:04:27;21.10;1.00
12152;DHT22;6139;51.274;7.128;2023-09-18T00:05:29;21.10;1.00
12152;DHT22;6139;51.274;7.128;2023-09-18T00:06:30;21.10;1.00
12152;DHT22;6139;51.274;7.128;2023-09-18T00:07:32;21.10;1.00
12152;DHT22;6139;51.274;7.128;2023-09-18T00:08:33;21.10;1.00
12152;DHT22;6139;51.274;7.128;2023-09-18T00:09:35;21.10;1.00
12152;DHT22;6139;51.274;7.128;2023-09-18T00:10:36;21.10;1.00
12152;DHT22;6139;51.274;7.128;2023-09-18T00:11:38;21.10;1.00
12152;DHT22;6139;51.274;7.128;2023-09-18T00:12:40;21.10;1.00
12152;DHT22;6139;51.274;7.128;2023-09-18T00:13:42;21.10;1.00
12152;DHT22;6139;51.274;7.128;2023-09-18T00:14:43;21.00;1.00
12152;DHT22;6139;51.274;7.128;2023-09-18T00:15:45;21.10;1.00
12152;DHT22;6139;51.274;7.128;2023-09-18T00:16:49;21.00;1.00
12152;DHT22;6139;51.274;7.128;2023-09-18T00:17:52;21.00;1.00
12152;DHT22;6139;51.274;7.128;2023-09-18T00:18:53;21.00;1.00
12152;DHT22;6139;51.274;7.128;2023-09-18T00:19:55;21.10;1.00
12152;DHT22;6139;51.274;7.128;2023-09-18T00:20:56;21.00;1.00
12152;DHT22;6139;51.274;7.128;2023-09-18T00:21:58;21.10;1.00
12152;DHT22;6139;51.274;7.128;2023-09-18T00:23:01;21.10;1.00
12152;DHT22;6139;51.274;7.128;2023-09-18T00:24:04;21.10;1.00
12152;DHT22;6139;51.274;7.128;2023-09-18T00:25:05;21.10;1.00
12152;DHT22;6139;51.274;7.128;2023-09-18T00:26:07;21.10;1.00
12152;DHT22;6139;51.274;7.128;2023-09-18T00:27:10;21.00;1.00
12152;DHT22;6139;51.274;7.128;2023-09-18T00:28:12;21.10;1.00
12152;DHT22;6139;51.274;7.128;2023-09-18T00:29:13;21.10;1.00
12152;DHT22;6139;51.274;7.128;2023-09-18T00:30:16;21.10;1.00
12152;DHT22;6139;51.274;7.128;2023-09-18T00:31:16;21.10;1.00
12152;DHT22;6139;51.274;7.128;2023-09-18T00:32:20;21.10;1.00
12152;DHT22;6139;51.274;7.128;2023-09-18T00:33:21;21.20;1.00
12152;DHT22;6139;51.274;7.128;2023-09-18T00:34:23;21.20;1.00
12152;DHT22;6139;51.274;7.128;2023-09-18T00:35:24;21.20;1.00
12152;DHT22;6139;51.274;7.128;2023-09-18T00:36:26;21.20;1.00
12152;DHT22;6139;51.274;7.128;2023-09-18T00:37:28;21.20;1.00
12152;DHT22;6139;51.274;7.128;2023-09-18T00:38:30;21.20;1.00
12152;DHT22;6139;51.274;7.128;2023-09-18T00:39:31;21.20;1.00
12152;DHT22;6139;51.274;7.128;2023-09-18T00:40:33;21.20;1.00
12152;DHT22;6139;51.274;7.128;2023-09-18T00:41:34;21.20;1.00
12152;DHT22;6139;51.274;7.128;2023-09-18T00:42:36;21.20;1.00
12152;DHT22;6139;51.274;7.128;2023-09-18T00:43:37;21.20;1.00
12152;DHT22;6139;51.274;7.128;2023-09-18T00:44:40;21.10;1.00
12152;DHT22;6139;51.274;7.128;2023-09-18T00:45:44;21.10;1.00
12152;DHT22;6139;51.274;7.128;2023-09-18T00:46:47;21.10;1.00
12152;DHT22;6139;51.274;7.128;2023-09-18T00:47:50;21.10;1.00
12152;DHT22;6139;51.274;7.128;2023-09-18T00:48:53;21.10;1.00
12152;DHT22;6139;51.274;7.128;2023-09-18T00:49:54;21.10;1.00
12152;DHT22;6139;51.274;7.128;2023-09-18T00:50:57;21.00;1.00
12152;DHT22;6139;51.274;7.128;2023-09-18T00:51:58;21.10;1.00
12152;DHT22;6139;51.274;7.128;2023-09-18T00:53:01;21.00;1.00
12152;DHT22;6139;51.274;7.128;2023-09-18T00:54:02;21.00;1.00
12152;DHT22;6139;51.274;7.128;2023-09-18T00:55:06;21.10;1.00
12152;DHT22;6139;51.274;7.128;2023-09-18T00:56:08;21.00;1.00
12152;DHT22;6139;51.274;7.128;2023-09-18T00:57:12;21.00;1.00
12152;DHT22;6139;51.274;7.128;2023-09-18T00:58:13;21.00;1.00
12152;DHT22;6139;51.274;7.128;2023-09-18T00:59:15;21.00;1.00
12152;DHT22;6139;51.274;7.128;2023-09-18T01:00:17;21.00;1.00
12152;DHT22;6139;51.274;7.128;2023-09-18T01:01:19;21.00;1.00
12152;DHT22;6139;51.274;7.128;2023-09-18T01:02:23;21.00;1.00
12152;DHT22;6139;51.274;7.128;2023-09-18T01:03:27;21.00;1.00
12152;DHT22;6139;51.274;7.128;2023-09-18T01:04:28;21.00;1.00
12152;DHT22;6139;51.274;7.128;2023-09-18T01:05:33;21.00;1.00
12152;DHT22;6139;51.274;7.128;2023-09-18T01:06:37;21.00;1.00
12152;DHT22;6139;51.274;7.128;2023-09-18T01:07:39;21.00;1.00
12152;DHT22;6139;51.274;7.128;2023-09-18T01:08:40;21.00;1.00
12152;DHT22;6139;51.274;7.128;2023-09-18T01:09:42;21.10;1.00
12152;DHT22;6139;51.274;7.128;2023-09-18T01:10:48;21.10;1.00
12152;DHT22;6139;51.274;7.128;2023-09-18T01:12:01;21.10;1.00
12152;DHT22;6139;51.274;7.128;2023-09-18T01:13:05;21.10;1.00
12152;DHT22;6139;51.274;7.128;2023-09-18T01:14:17;21.00;1.00
12152;DHT22;6139;51.274;7.128;2023-09-18T01:15:22;21.00;1.00
12152;DHT22;6139;51.274;7.128;2023-09-18T01:16:36;21.00;1.00
12152;DHT22;6139;51.274;7.128;2023-09-18T01:17:39;21.00;1.00
12152;DHT22;6139;51.274;7.128;2023-09-18T01:18:49;21.10;1.00
12152;DHT22;6139;51.274;7.128;2023-09-18T01:19:51;21.10;1.00
12152;DHT22;6139;51.274;7.128;2023-09-18T01:20:53;21.10;1.00
12152;DHT22;6139;51.274;7.128;2023-09-18T01:21:54;21.10;1.00
12152;DHT22;6139;51.274;7.128;2023-09-18T01:22:56;21.10;1.00
12152;DHT22;6139;51.274;7.128;2023-09-18T01:23:58;21.10;1.00
12152;DHT22;6139;51.274;7.128;2023-09-18T01:24:59;21.10;1.00
12152;DHT22;6139;51.274;7.128;2023-09-18T01:26:00;21.10;1.00
12152;DHT22;6139;51.274;7.128;2023-09-18T01:27:03;21.10;1.00
12152;DHT22;6139;51.274;7.128;2023-09-18T01:28:06;21.20;1.00
12152;DHT22;6139;51.274;7.128;2023-09-18T01:29:09;21.10;1.00
12152;DHT22;6139;51.274;7.128;2023-09-18T01:30:11;21.20;1.00
12152;DHT22;6139;51.274;7.128;2023-09-18T01:31:13;21.20;1.00
12152;DHT22;6139;51.274;7.128;2023-09-18T01:32:14;21.20;1.00
12152;DHT22;6139;51.274;7.128;2023-09-18T01:33:17;21.20;1.00
12152;DHT22;6139;51.274;7.128;2023-09-18T01:34:20;21.20;1.00
12152;DHT22;6139;51.274;7.128;2023-09-18T01:35:22;21.20;1.00
12152;DHT22;6139;51.274;7.128;2023-09-18T01:36:30;21.20;1.00
12152;DHT22;6139;51.274;7.128;2023-09-18T01:37:31;21.20;1.00
12152;DHT22;6139;51.274;7.128;2023-09-18T01:38:37;21.20;1.00
12152;DHT22;6139;51.274;7.128;2023-09-18T01:39:39;21.20;1.00
12152;DHT22;6139;51.274;7.128;2023-09-18T01:40:41;21.20;1.00
12152;DHT22;6139;51.274;7.128;2023-09-18T01:41:43;21.20;1.00
12152;DHT22;6139;51.274;7.128;2023-09-18T01:42:46;21.20;1.00
12152;DHT22;6139;51.274;7.128;2023-09-18T01:43:47;21.20;1.00
12152;DHT22;6139;51.274;7.128;2023-09-18T01:44:49;21.20;1.00
12152;DHT22;6139;51.274;7.128;2023-09-18T01:45:50;21.30;1.00
12152;DHT22;6139;51.274;7.128;2023-09-18T01:46:53;21.30;1.00
12152;DHT22;6139;51.274;7.128;2023-09-18T01:47:56;21.20;1.00
12152;DHT22;6139;51.274;7.128;2023-09-18T01:48:58;21.20;1.00
12152;DHT22;6139;51.274;7.128;2023-09-18T01:50:03;21.30;1.00
12152;DHT22;6139;51.274;7.128;2023-09-18T01:51:06;21.20;12.00
12152;DHT22;6139;51.274;7.128;2023-09-18T01:52:08;21.20;4.10
12152;DHT22;6139;51.274;7.128;2023-09-18T01:53:10;21.20;1.00
12152;DHT22;6139;51.274;7.128;2023-09-18T01:54:14;21.20;1.00
12152;DHT22;6139;51.274;7.128;2023-09-18T01:55:16;21.20;1.00
12152;DHT22;6139;51.274;7.128;2023-09-18T01:56:17;21.30;1.00
12152;DHT22;6139;51.274;7.128;2023-09-18T01:57:21;21.30;25.10
12152;DHT22;6139;51.274;7.128;2023-09-18T01:58:23;21.30;1.00
12152;DHT22;6139;51.274;7.128;2023-09-18T01:59:24;21.20;1.00
12152;DHT22;6139;51.274;7.128;2023-09-18T02:00:26;21.20;1.00
12152;DHT22;6139;51.274;7.128;2023-09-18T02:01:28;21.20;1.00
12152;DHT22;6139;51.274;7.128;2023-09-18T02:02:30;21.20;1.00
12152;DHT22;6139;51.274;7.128;2023-09-18T02:03:31;21.30;1.00
12152;DHT22;6139;51.274;7.128;2023-09-18T02:04:33;21.30;1.00
12152;DHT22;6139;51.274;7.128;2023-09-18T02:05:34;21.30;1.00
12152;DHT22;6139;51.274;7.128;2023-09-18T02:06:37;21.30;1.00
12152;DHT22;6139;51.274;7.128;2023-09-18T02:07:38;21.30;1.00
12152;DHT22;6139;51.274;7.128;2023-09-18T02:08:40;21.30;35.10
12152;DHT22;6139;51.274;7.128;2023-09-18T02:09:42;21.30;1.00
12152;DHT22;6139;51.274;7.128;2023-09-18T02:10:45;21.30;1.00
12152;DHT22;6139;51.274;7.128;2023-09-18T02:11:46;21.30;13.30
12152;DHT22;6139;51.274;7.128;2023-09-18T02:12:49;21.30;1.00
12152;DHT22;6139;51.274;7.128;2023-09-18T02:13:50;21.30;1.00
12152;DHT22;6139;51.274;7.128;2023-09-18T02:14:52;21.40;1.00
12152;DHT22;6139;51.274;7.128;2023-09-18T02:15:53;21.30;1.00
12152;DHT22;6139;51.274;7.128;2023-09-18T02:16:54;21.30;99.90
12152;DHT22;6139;51.274;7.128;2023-09-18T02:17:56;21.30;1.00
12152;DHT22;6139;51.274;7.128;2023-09-18T02:18:57;21.30;1.00
12152;DHT22;6139;51.274;7.128;2023-09-18T02:19:58;21.20;1.00
12152;DHT22;6139;51.274;7.128;2023-09-18T02:21:01;21.20;1.00
12152;DHT22;6139;51.274;7.128;2023-09-18T02:22:03;21.20;1.00
12152;DHT22;6139;51.274;7.128;2023-09-18T02:23:04;21.20;1.00
12152;DHT22;6139;51.274;7.128;2023-09-18T02:24:06;21.30;1.00
12152;DHT22;6139;51.274;7.128;2023-09-18T02:25:09;21.30;1.00
12152;DHT22;6139;51.274;7.128;2023-09-18T02:26:11;21.30;1.00
12152;DHT22;6139;51.274;7.128;2023-09-18T02:27:12;21.30;1.00
12152;DHT22;6139;51.274;7.128;2023-09-18T02:28:14;21.30;1.00
12152;DHT22;6139;51.274;7.128;2023-09-18T02:29:16;21.30;1.00
12152;DHT22;6139;51.274;7.128;2023-09-18T02:30:18;21.30;81.90
12152;DHT22;6139;51.274;7.128;2023-09-18T02:31:20;21.30;99.90
12152;DHT22;6139;51.274;7.128;2023-09-18T02:32:21;21.30;74.20
12152;DHT22;6139;51.274;7.128;2023-09-18T02:33:23;21.30;76.20
12152;DHT22;6139;51.274;7.128;2023-09-18T02:34:24;21.30;99.90
12152;DHT22;6139;51.274;7.128;2023-09-18T02:35:26;21.30;95.80
12152;DHT22;6139;51.274;7.128;2023-09-18T02:36:27;21.30;67.70
12152;DHT22;6139;51.274;7.128;2023-09-18T02:37:28;21.30;71.60
12152;DHT22;6139;51.274;7.128;2023-09-18T02:38:30;21.30;99.90
12152;DHT22;6139;51.274;7.128;2023-09-18T02:39:31;21.30;99.90
12152;DHT22;6139;51.274;7.128;2023-09-18T02:40:35;21.40;99.90
12152;DHT22;6139;51.274;7.128;2023-09-18T02:41:36;21.40;46.40
12152;DHT22;6139;51.274;7.128;2023-09-18T02:42:39;21.40;53.60
12152;DHT22;6139;51.274;7.128;2023-09-18T02:43:40;21.40;99.90
12152;DHT22;6139;51.274;7.128;2023-09-18T02:44:41;21.40;99.90
12152;DHT22;6139;51.274;7.128;2023-09-18T02:45:42;21.40;99.90
12152;DHT22;6139;51.274;7.128;2023-09-18T02:46:46;21.30;99.90
12152;DHT22;6139;51.274;7.128;2023-09-18T02:47:47;21.40;99.90
12152;DHT22;6139;51.274;7.128;2023-09-18T02:48:49;21.40;99.90
12152;DHT22;6139;51.274;7.128;2023-09-18T02:49:51;21.40;99.90
12152;DHT22;6139;51.274;7.128;2023-09-18T02:50:53;21.40;99.90
12152;DHT22;6139;51.274;7.128;2023-09-18T02:51:53;21.40;99.90
12152;DHT22;6139;51.274;7.128;2023-09-18T02:52:56;21.40;99.90
12152;DHT22;6139;51.274;7.128;2023-09-18T02:53:57;21.50;89.70
12152;DHT22;6139;51.274;7.128;2023-09-18T02:54:58;21.50;6.00
12152;DHT22;6139;51.274;7.128;2023-09-18T02:56:01;21.50;96.90
12152;DHT22;6139;51.274;7.128;2023-09-18T02:57:02;21.50;99.90
12152;DHT22;6139;51.274;7.128;2023-09-18T02:58:04;21.50;99.90
12152;DHT22;6139;51.274;7.128;2023-09-18T02:59:05;21.50;99.90
12152;DHT22;6139;51.274;7.128;2023-09-18T03:00:08;21.60;99.90
12152;DHT22;6139;51.274;7.128;2023-09-18T03:01:10;21.60;99.90
12152;DHT22;6139;51.274;7.128;2023-09-18T03:02:12;21.60;99.90
12152;DHT22;6139;51.274;7.128;2023-09-18T03:03:14;21.60;99.90
12152;DHT22;6139;51.274;7.128;2023-09-18T03:04:16;21.60;99.90
12152;DHT22;6139;51.274;7.128;2023-09-18T03:05:17;21.60;99.90
12152;DHT22;6139;51.274;7.128;2023-09-18T03:06:19;21.60;99.90
12152;DHT22;6139;51.274;7.128;2023-09-18T03:07:20;21.60;99.90
12152;DHT22;6139;51.274;7.128;2023-09-18T03:08:23;21.60;99.90
12152;DHT22;6139;51.274;7.128;2023-09-18T03:09:24;21.60;1.00
12152;DHT22;6139;51.274;7.128;2023-09-18T03:10:26;21.50;99.90
12152;DHT22;6139;51.274;7.128;2023-09-18T03:11:28;21.50;7.20
12152;DHT22;6139;51.274;7.128;2023-09-18T03:12:30;21.50;1.00
12152;DHT22;6139;51.274;7.128;2023-09-18T03:13:32;21.50;1.00
12152;DHT22;6139;51.274;7.128;2023-09-18T03:14:34;21.50;99.90
12152;DHT22;6139;51.274;7.128;2023-09-18T03:15:35;21.50;1.00
12152;DHT22;6139;51.274;7.128;2023-09-18T03:16:37;21.40;1.00
12152;DHT22;6139;51.274;7.128;2023-09-18T03:17:39;21.40;1.00
12152;DHT22;6139;51.274;7.128;2023-09-18T03:18:42;21.50;1.00
12152;DHT22;6139;51.274;7.128;2023-09-18T03:19:47;21.40;99.90
12152;DHT22;6139;51.274;7.128;2023-09-18T03:20:49;21.40;99.90
12152;DHT22;6139;51.274;7.128;2023-09-18T03:21:51;21.40;99.90
12152;DHT22;6139;51.274;7.128;2023-09-18T03:22:54;21.40;99.90
12152;DHT22;6139;51.274;7.128;2023-09-18T03:23:56;21.30;99.90
12152;DHT22;6139;51.274;7.128;2023-09-18T03:24:58;21.40;99.90
12152;DHT22;6139;51.274;7.128;2023-09-18T03:26:00;21.40;99.90
12152;DHT22;6139;51.274;7.128;2023-09-18T03:27:03;21.40;99.90
12152;DHT22;6139;51.274;7.128;2023-09-18T03:28:05;21.30;99.90
12152;DHT22;6139;51.274;7.128;2023-09-18T03:29:08;21.30;99.90
12152;DHT22;6139;51.274;7.128;2023-09-18T03:30:10;21.30;99.90
12152;DHT22;6139;51.274;7.128;2023-09-18T03:31:14;21.30;99.90
12152;DHT22;6139;51.274;7.128;2023-09-18T03:32:16;21.30;99.90
12152;DHT22;6139;51.274;7.128;2023-09-18T03:33:17;21.30;99.90
12152;DHT22;6139;51.274;7.128;2023-09-18T03:34:19;21.30;99.90
12152;DHT22;6139;51.274;7.128;2023-09-18T03:35:21;21.30;99.90
12152;DHT22;6139;51.274;7.128;2023-09-18T03:36:23;21.20;99.90
12152;DHT22;6139;51.274;7.128;2023-09-18T03:37:25;21.20;99.90
12152;DHT22;6139;51.274;7.128;2023-09-18T03:38:26;21.20;99.90
12152;DHT22;6139;51.274;7.128;2023-09-18T03:39:29;21.20;99.90
12152;DHT22;6139;51.274;7.128;2023-09-18T03:40:30;21.20;99.90
12152;DHT22;6139;51.274;7.128;2023-09-18T03:41:32;21.10;99.90
12152;DHT22;6139;51.274;7.128;2023-09-18T03:42:36;21.10;99.90
12152;DHT22;6139;51.274;7.128;2023-09-18T03:43:38;21.10;99.90
12152;DHT22;6139;51.274;7.128;2023-09-18T03:44:40;21.10;99.90
12152;DHT22;6139;51.274;7.128;2023-09-18T03:45:42;21.10;99.90
12152;DHT22;6139;51.274;7.128;2023-09-18T03:46:43;21.10;99.90
12152;DHT22;6139;51.274;7.128;2023-09-18T03:47:44;21.10;99.90
12152;DHT22;6139;51.274;7.128;2023-09-18T03:48:46;21.10;99.90
12152;DHT22;6139;51.274;7.128;2023-09-18T03:49:47;21.00;99.90
12152;DHT22;6139;51.274;7.128;2023-09-18T03:50:50;21.00;99.90
12152;DHT22;6139;51.274;7.128;2023-09-18T03:51:52;21.00;1.00
12152;DHT22;6139;51.274;7.128;2023-09-18T03:52:53;21.00;1.00
12152;DHT22;6139;51.274;7.128;2023-09-18T03:53:55;21.00;1.00
12152;DHT22;6139;51.274;7.128;2023-09-18T03:54:55;20.90;1.00
12152;DHT22;6139;51.274;7.128;2023-09-18T03:55:56;20.90;1.00
12152;DHT22;6139;51.274;7.128;2023-09-18T03:56:59;20.90;1.00
12152;DHT22;6139;51.274;7.128;2023-09-18T03:58:01;20.80;1.00
12152;DHT22;6139;51.274;7.128;2023-09-18T03:59:05;20.80;1.00
12152;DHT22;6139;51.274;7.128;2023-09-18T04:00:06;20.80;1.00
12152;DHT22;6139;51.274;7.128;2023-09-18T04:01:15;20.70;1.00
12152;DHT22;6139;51.274;7.128;2023-09-18T04:02:16;20.70;1.00
12152;DHT22;6139;51.274;7.128;2023-09-18T04:03:18;20.70;1.00
12152;DHT22;6139;51.274;7.128;2023-09-18T04:04:19;20.60;1.00
12152;DHT22;6139;51.274;7.128;2023-09-18T04:05:21;20.60;1.00
12152;DHT22;6139;51.274;7.128;2023-09-18T04:06:22;20.50;1.00
12152;DHT22;6139;51.274;7.128;2023-09-18T04:07:25;20.50;1.00
12152;DHT22;6139;51.274;7.128;2023-09-18T04:08:26;20.50;1.00
12152;DHT22;6139;51.274;7.128;2023-09-18T04:09:28;20.40;1.00
12152;DHT22;6139;51.274;7.128;2023-09-18T04:10:29;20.40;1.00
12152;DHT22;6139;51.274;7.128;2023-09-18T04:11:31;20.40;1.00
12152;DHT22;6139;51.274;7.128;2023-09-18T04:12:32;20.40;1.00
12152;DHT22;6139;51.274;7.128;2023-09-18T04:13:36;20.40;1.00
12152;DHT22;6139;51.274;7.128;2023-09-18T04:14:38;20.40;1.00
12152;DHT22;6139;51.274;7.128;2023-09-18T04:15:40;20.40;1.00
12152;DHT22;6139;51.274;7.128;2023-09-18T04:16:42;20.40;1.00
12152;DHT22;6139;51.274;7.128;2023-09-18T04:17:43;20.30;1.00
12152;DHT22;6139;51.274;7.128;2023-09-18T04:18:45;20.30;1.00
12152;DHT22;6139;51.274;7.128;2023-09-18T04:19:46;20.30;1.00
12152;DHT22;6139;51.274;7.128;2023-09-18T04:20:48;20.30;1.00
12152;DHT22;6139;51.274;7.128;2023-09-18T04:21:51;20.30;1.00
12152;DHT22;6139;51.274;7.128;2023-09-18T04:23:18;20.30;1.00
12152;DHT22;6139;51.274;7.128;2023-09-18T04:24:20;20.30;1.00
12152;DHT22;6139;51.274;7.128;2023-09-18T04:25:22;20.30;1.00
12152;DHT22;6139;51.274;7.128;2023-09-18T04:26:23;20.30;1.00
12152;DHT22;6139;51.274;7.128;2023-09-18T04:27:25;20.20;1.00
12152;DHT22;6139;51.274;7.128;2023-09-18T04:28:26;20.20;1.00
12152;DHT22;6139;51.274;7.128;2023-09-18T04:29:29;20.20;1.00
12152;DHT22;6139;51.274;7.128;2023-09-18T04:30:31;20.20;1.00
12152;DHT22;6139;51.274;7.128;2023-09-18T04:31:32;20.10;1.00
12152;DHT22;6139;51.274;7.128;2023-09-18T04:32:35;20.10;1.00
12152;DHT22;6139;51.274;7.128;2023-09-18T04:33:37;20.10;6.60
12152;DHT22;6139;51.274;7.128;2023-09-18T04:34:38;20.10;11.90
12152;DHT22;6139;51.274;7.128;2023-09-18T04:35:40;20.10;16.70
12152;DHT22;6139;51.274;7.128;2023-09-18T04:36:42;20.10;49.30
12152;DHT22;6139;51.274;7.128;2023-09-18T04:37:45;20.10;44.40
12152;DHT22;6139;51.274;7.128;2023-09-18T04:38:46;20.10;35.40
12152;DHT22;6139;51.274;7.128;2023-09-18T04:39:48;20.10;40.00
12152;DHT22;6139;51.274;7.128;2023-09-18T04:40:49;20.10;32.80
12152;DHT22;6139;51.274;7.128;2023-09-18T04:41:52;20.10;76.90
12152;DHT22;6139;51.274;7.128;2023-09-18T04:42:53;20.10;99.90
12152;DHT22;6139;51.274;7.128;2023-09-18T04:43:55;20.10;99.90
12152;DHT22;6139;51.274;7.128;2023-09-18T04:44:57;20.10;99.90
12152;DHT22;6139;51.274;7.128;2023-09-18T04:45:59;20.10;97.20
12152;DHT22;6139;51.274;7.128;2023-09-18T04:47:00;20.10;99.90
12152;DHT22;6139;51.274;7.128;2023-09-18T04:48:03;20.10;99.90
12152;DHT22;6139;51.274;7.128;2023-09-18T04:49:06;20.00;99.90
12152;DHT22;6139;51.274;7.128;2023-09-18T04:50:08;20.10;99.90
12152;DHT22;6139;51.274;7.128;2023-09-18T04:51:10;20.00;99.90
12152;DHT22;6139;51.274;7.128;2023-09-18T04:52:12;20.10;99.90
12152;DHT22;6139;51.274;7.128;2023-09-18T04:53:14;20.00;99.90
12152;DHT22;6139;51.274;7.128;2023-09-18T04:54:16;20.00;99.90
12152;DHT22;6139;51.274;7.128;2023-09-18T04:55:17;20.00;99.90
12152;DHT22;6139;51.274;7.128;2023-09-18T04:56:19;20.00;95.20
12152;DHT22;6139;51.274;7.128;2023-09-18T04:57:21;20.00;99.90
12152;DHT22;6139;51.274;7.128;2023-09-18T04:58:23;20.00;99.90
12152;DHT22;6139;51.274;7.128;2023-09-18T04:59:24;20.00;99.90
12152;DHT22;6139;51.274;7.128;2023-09-18T05:00:28;20.00;99.90
12152;DHT22;6139;51.274;7.128;2023-09-18T05:01:30;20.00;99.90
12152;DHT22;6139;51.274;7.128;2023-09-18T05:02:32;20.00;99.90
12152;DHT22;6139;51.274;7.128;2023-09-18T05:03:35;20.00;99.90
12152;DHT22;6139;51.274;7.128;2023-09-18T05:04:37;20.00;99.90
12152;DHT22;6139;51.274;7.128;2023-09-18T05:05:38;19.90;99.90
12152;DHT22;6139;51.274;7.128;2023-09-18T05:06:41;19.90;99.90
12152;DHT22;6139;51.274;7.128;2023-09-18T05:07:42;19.90;99.90
12152;DHT22;6139;51.274;7.128;2023-09-18T05:08:45;19.90;99.90
12152;DHT22;6139;51.274;7.128;2023-09-18T05:09:46;19.90;99.90
12152;DHT22;6139;51.274;7.128;2023-09-18T05:10:48;19.90;99.90
12152;DHT22;6139;51.274;7.128;2023-09-18T05:11:49;19.80;99.90
12152;DHT22;6139;51.274;7.128;2023-09-18T05:12:51;19.80;99.90
12152;DHT22;6139;51.274;7.128;2023-09-18T05:13:59;19.80;99.90
12152;DHT22;6139;51.274;7.128;2023-09-18T05:15:01;19.80;99.90
12152;DHT22;6139;51.274;7.128;2023-09-18T05:16:03;19.80;99.90
12152;DHT22;6139;51.274;7.128;2023-09-18T05:17:05;19.70;99.90
12152;DHT22;6139;51.274;7.128;2023-09-18T05:18:06;19.70;99.90
12152;DHT22;6139;51.274;7.128;2023-09-18T05:19:08;19.70;99.90
12152;DHT22;6139;51.274;7.128;2023-09-18T05:20:10;19.70;99.90
12152;DHT22;6139;51.274;7.128;2023-09-18T05:21:12;19.80;99.90
12152;DHT22;6139;51.274;7.128;2023-09-18T05:22:14;19.70;99.90
12152;DHT22;6139;51.274;7.128;2023-09-18T05:23:15;19.70;99.90
12152;DHT22;6139;51.274;7.128;2023-09-18T05:24:18;19.70;99.90
12152;DHT22;6139;51.274;7.128;2023-09-18T05:25:28;19.70;99.90
12152;DHT22;6139;51.274;7.128;2023-09-18T05:26:32;19.70;99.90
12152;DHT22;6139;51.274;7.128;2023-09-18T05:27:34;19.70;99.90
12152;DHT22;6139;51.274;7.128;2023-09-18T05:28:36;19.60;99.90
12152;DHT22;6139;51.274;7.128;2023-09-18T05:29:37;19.70;99.90
12152;DHT22;6139;51.274;7.128;2023-09-18T05:30:39;19.60;99.90
12152;DHT22;6139;51.274;7.128;2023-09-18T05:31:41;19.60;99.90
12152;DHT22;6139;51.274;7.128;2023-09-18T05:32:43;19.60;99.90
12152;DHT22;6139;51.274;7.128;2023-09-18T05:33:45;19.60;99.90
12152;DHT22;6139;51.274;7.128;2023-09-18T05:34:46;19.60;99.90
12152;DHT22;6139;51.274;7.128;2023-09-18T05:35:47;19.60;99.90
12152;DHT22;6139;51.274;7.128;2023-09-18T05:36:49;19.60;99.90
12152;DHT22;6139;51.274;7.128;2023-09-18T05:37:53;19.60;99.90
12152;DHT22;6139;51.274;7.128;2023-09-18T05:38:57;19.60;99.90
12152;DHT22;6139;51.274;7.128;2023-09-18T05:39:59;19.60;99.90
12152;DHT22;6139;51.274;7.128;2023-09-18T05:41:01;19.60;99.90
12152;DHT22;6139;51.274;7.128;2023-09-18T05:42:06;19.70;99.90
12152;DHT22;6139;51.274;7.128;2023-09-18T05:43:06;19.60;99.90
12152;DHT22;6139;51.274;7.128;2023-09-18T05:44:09;19.70;99.90
12152;DHT22;6139;51.274;7.128;2023-09-18T05:45:11;19.70;99.90
12152;DHT22;6139;51.274;7.128;2023-09-18T05:46:13;19.70;99.90
12152;DHT22;6139;51.274;7.128;2023-09-18T05:47:16;19.70;99.90
12152;DHT22;6139;51.274;7.128;2023-09-18T05:48:18;19.70;99.90
12152;DHT22;6139;51.274;7.128;2023-09-18T05:49:19;19.70;99.90
12152;DHT22;6139;51.274;7.128;2023-09-18T05:50:21;19.70;99.90
12152;DHT22;6139;51.274;7.128;2023-09-18T05:51:22;19.60;99.90
12152;DHT22;6139;51.274;7.128;2023-09-18T05:52:25;19.60;99.90
12152;DHT22;6139;51.274;7.128;2023-09-18T05:53:26;19.60;99.90
12152;DHT22;6139;51.274;7.128;2023-09-18T05:54:28;19.60;99.90
12152;DHT22;6139;51.274;7.128;2023-09-18T05:55:29;19.60;99.90
12152;DHT22;6139;51.274;7.128;2023-09-18T05:56:30;19.60;99.90
12152;DHT22;6139;51.274;7.128;2023-09-18T05:57:33;19.60;99.90
12152;DHT22;6139;51.274;7.128;2023-09-18T05:58:34;19.60;99.90
12152;DHT22;6139;51.274;7.128;2023-09-18T05:59:36;19.60;99.90
12152;DHT22;6139;51.274;7.128;2023-09-18T06:00:39;19.60;99.90
12152;DHT22;6139;51.274;7.128;2023-09-18T06:01:41;19.60;99.90
12152;DHT22;6139;51.274;7.128;2023-09-18T06:02:43;19.60;99.90
12152;DHT22;6139;51.274;7.128;2023-09-18T06:03:46;19.50;99.90
12152;DHT22;6139;51.274;7.128;2023-09-18T06:04:48;19.50;99.90
12152;DHT22;6139;51.274;7.128;2023-09-18T06:05:49;19.50;99.90
12152;DHT22;6139;51.274;7.128;2023-09-18T06:06:51;19.50;99.90
12152;DHT22;6139;51.274;7.128;2023-09-18T06:07:52;19.50;99.90
12152;DHT22;6139;51.274;7.128;2023-09-18T06:08:54;19.50;99.90
12152;DHT22;6139;51.274;7.128;2023-09-18T06:09:55;19.50;99.90
12152;DHT22;6139;51.274;7.128;2023-09-18T06:10:57;19.50;99.90
12152;DHT22;6139;51.274;7.128;2023-09-18T06:11:59;19.50;99.90
12152;DHT22;6139;51.274;7.128;2023-09-18T06:13:02;19.50;99.90
12152;DHT22;6139;51.274;7.128;2023-09-18T06:14:09;19.50;99.90
12152;DHT22;6139;51.274;7.128;2023-09-18T06:15:11;19.50;99.90
12152;DHT22;6139;51.274;7.128;2023-09-18T06:16:13;19.50;99.90
12152;DHT22;6139;51.274;7.128;2023-09-18T06:17:15;19.50;99.90
12152;DHT22;6139;51.274;7.128;2023-09-18T06:18:18;19.50;99.90
12152;DHT22;6139;51.274;7.128;2023-09-18T06:19:21;19.40;99.90
12152;DHT22;6139;51.274;7.128;2023-09-18T06:20:22;19.50;99.90
12152;DHT22;6139;51.274;7.128;2023-09-18T06:21:24;19.50;99.90
12152;DHT22;6139;51.274;7.128;2023-09-18T06:22:25;19.40;99.90
12152;DHT22;6139;51.274;7.128;2023-09-18T06:23:26;19.40;99.90
12152;DHT22;6139;51.274;7.128;2023-09-18T06:24:28;19.50;99.90
12152;DHT22;6139;51.274;7.128;2023-09-18T06:25:29;19.40;99.90
12152;DHT22;6139;51.274;7.128;2023-09-18T06:26:32;19.40;99.90
12152;DHT22;6139;51.274;7.128;2023-09-18T06:27:34;19.40;99.90
12152;DHT22;6139;51.274;7.128;2023-09-18T06:28:37;19.50;99.90
12152;DHT22;6139;51.274;7.128;2023-09-18T06:29:39;19.40;99.90
12152;DHT22;6139;51.274;7.128;2023-09-18T06:30:43;19.50;99.90
12152;DHT22;6139;51.274;7.128;2023-09-18T06:31:44;19.50;99.90
12152;DHT22;6139;51.274;7.128;2023-09-18T06:32:46;19.40;99.90
12152;DHT22;6139;51.274;7.128;2023-09-18T06:33:48;19.40;99.90
12152;DHT22;6139;51.274;7.128;2023-09-18T06:34:50;19.50;99.90
12152;DHT22;6139;51.274;7.128;2023-09-18T06:35:51;19.40;99.90
12152;DHT22;6139;51.274;7.128;2023-09-18T06:36:53;19.50;99.90
12152;DHT22;6139;51.274;7.128;2023-09-18T06:37:54;19.40;99.90
12152;DHT22;6139;51.274;7.128;2023-09-18T06:38:59;19.50;99.90
12152;DHT22;6139;51.274;7.128;2023-09-18T06:40:00;19.50;99.90
12152;DHT22;6139;51.274;7.128;2023-09-18T06:41:04;19.50;99.90
12152;DHT22;6139;51.274;7.128;2023-09-18T06:42:05;19.50;99.90
12152;DHT22;6139;51.274;7.128;2023-09-18T06:43:07;19.50;99.90